Time;durP1;ratioP1;P1;durP2;ratioP2;P2;SDS_P1;SDS_P2;PMS_P1;PMS_P2;Temp;Humidity;BMP_temperature;BMP_pressure;BME280_temperature;BME280_humidity;BME280_pressure;Samples;Min_cycle;Max_cycle;Signal;HPM_P1;HPM_P2
2022/09/11 00:01:54;;;;;;;7.42;3.00;;;;;;;13.83;58.81;100775.73;1700784;84;21196;-59
2022/09/11 00:05:00;;;;;;;7.95;3.12;;;;;;;13.82;58.73;100778.16;1700589;84;21198;-58
2022/09/11 00:08:06;;;;;;;5.42;2.90;;;;;;;13.78;58.70;100786.45;1684311;84;21205;-59
2022/09/11 00:11:11;;;;;;;6.87;3.50;;;;;;;13.75;58.69;100785.99;1702533;84;21215;-58
2022/09/11 00:14:19;;;;;;;7.12;3.33;;;;;;;13.72;58.70;100784.95;1674132;84;21714;-59
2022/09/11 00:17:24;;;;;;;5.20;3.00;;;;;;;13.69;58.67;100791.70;1673237;84;21201;-58
2022/09/11 00:20:29;;;;;;;5.53;2.77;;;;;;;13.65;58.64;100796.39;1672762;84;21225;-58
2022/09/11 00:23:35;;;;;;;5.53;3.30;;;;;;;13.62;58.66;100799.52;1675094;84;21219;-58
2022/09/11 00:26:42;;;;;;;6.78;2.75;;;;;;;13.58;58.66;100788.53;1673582;84;21228;-58
2022/09/11 00:29:48;;;;;;;5.75;2.92;;;;;;;13.53;58.61;100798.20;1731596;81;21181;-57
2022/09/11 00:32:54;;;;;;;6.50;3.35;;;;;;;13.50;58.63;100798.58;1703110;84;21260;-57
2022/09/11 00:36:08;;;;;;;5.22;2.90;;;;;;;13.46;58.60;100783.47;1700641;84;21218;-55
2022/09/11 00:39:13;;;;;;;8.30;2.98;;;;;;;13.43;58.64;100793.47;1734470;81;21212;-56
2022/09/11 00:42:19;;;;;;;7.25;3.15;;;;;;;13.40;58.60;100786.96;1735170;81;21803;-57
2022/09/11 00:45:32;;;;;;;8.23;2.98;;;;;;;13.38;58.64;100769.78;1731105;81;21235;-57
2022/09/11 00:48:41;;;;;;;6.72;2.85;;;;;;;13.35;58.66;100785.28;1736818;81;21353;-56
2022/09/11 00:51:47;;;;;;;7.60;2.75;;;;;;;13.32;58.69;100786.16;1733796;81;21370;-56
2022/09/11 00:55:07;;;;;;;6.65;3.02;;;;;;;13.25;58.65;100776.44;1713447;84;21543;-57
2022/09/11 00:58:25;;;;;;;6.40;2.98;;;;;;;13.20;58.68;100781.62;1713676;84;21230;-56
2022/09/11 01:01:32;;;;;;;5.72;2.90;;;;;;;13.12;58.70;100777.56;1713869;83;21254;-58
2022/09/11 01:04:38;;;;;;;5.40;2.70;;;;;;;13.09;58.74;100780.67;1703511;83;21322;-56
2022/09/11 01:07:45;;;;;;;7.08;3.10;;;;;;;13.06;58.75;100775.55;1714265;83;21257;-57
2022/09/11 01:11:29;;;;;;;4.95;2.98;;;;;;;13.00;58.73;100779.00;1713075;84;21647;-56
2022/09/11 01:15:06;;;;;;;7.70;2.70;;;;;;;12.93;58.77;100761.52;1713245;83;21242;-55
2022/09/11 01:18:32;;;;;;;6.80;2.90;;;;;;;12.88;58.90;100753.46;1713236;83;21242;-56
2022/09/11 01:21:59;;;;;;;7.47;2.95;;;;;;;12.82;58.97;100747.33;1713198;83;21194;-56
2022/09/11 01:25:26;;;;;;;4.95;2.70;;;;;;;12.77;59.06;100750.62;1710116;83;21167;-55
2022/09/11 01:28:53;;;;;;;7.15;3.00;;;;;;;12.73;59.07;100744.30;1713845;83;21396;-57
2022/09/11 01:32:18;;;;;;;5.97;3.12;;;;;;;12.64;59.12;100743.48;1713990;83;21163;-58
2022/09/11 01:35:40;;;;;;;4.78;3.22;;;;;;;12.56;59.11;100743.52;1714107;83;21337;-56
2022/09/11 01:39:10;;;;;;;11.90;3.50;;;;;;;12.45;59.17;100738.44;1713895;83;21229;-56
2022/09/11 01:42:24;;;;;;;5.40;3.12;;;;;;;12.38;59.26;100738.83;1713717;84;21206;-56
2022/09/11 01:45:31;;;;;;;7.83;3.15;;;;;;;12.32;59.38;100734.56;1704144;82;21226;-56
2022/09/11 01:48:49;;;;;;;5.28;2.75;;;;;;;12.28;59.50;100727.70;1713872;83;21403;-57
2022/09/11 01:51:56;;;;;;;4.87;3.00;;;;;;;12.19;59.44;100715.06;1713780;83;21242;-57
2022/09/11 01:55:08;;;;;;;4.90;2.92;;;;;;;12.11;59.53;100708.23;1713678;83;21215;-57
2022/09/11 01:58:24;;;;;;;9.03;3.30;;;;;;;12.03;59.67;100703.63;1713888;83;21301;-57
2022/09/11 02:01:35;;;;;;;11.30;3.87;;;;;;;11.99;59.78;100695.41;1713904;83;21376;-58
2022/09/11 02:04:51;;;;;;;9.50;3.25;;;;;;;11.96;59.85;100695.25;1713784;83;21246;-57
2022/09/11 02:08:03;;;;;;;6.80;3.33;;;;;;;11.91;59.89;100688.06;1713562;83;21198;-56
2022/09/11 02:11:13;;;;;;;5.12;3.20;;;;;;;11.88;59.98;100672.47;1713705;84;21194;-58
2022/09/11 02:14:34;;;;;;;6.62;2.83;;;;;;;11.87;60.12;100688.59;1713754;84;21194;-55
2022/09/11 02:17:55;;;;;;;7.28;3.33;;;;;;;11.82;60.07;100681.41;1714130;83;21211;-56
2022/09/11 02:21:01;;;;;;;7.87;3.12;;;;;;;11.77;60.17;100675.09;1713792;83;21302;-57
2022/09/11 02:24:10;;;;;;;8.78;3.52;;;;;;;11.71;60.23;100666.20;1713575;84;21226;-56
2022/09/11 02:27:21;;;;;;;7.62;3.52;;;;;;;11.65;60.26;100661.39;1713768;83;21199;-56
2022/09/11 02:30:29;;;;;;;7.55;3.20;;;;;;;11.61;60.38;100655.04;1714304;83;21324;-58
2022/09/11 02:33:42;;;;;;;6.58;3.33;;;;;;;11.61;60.54;100645.44;1713760;83;21214;-56
2022/09/11 02:37:19;;;;;;;7.58;2.70;;;;;;;11.61;60.62;100648.18;1713688;83;21186;-57
2022/09/11 02:40:47;;;;;;;4.55;3.08;;;;;;;11.62;60.66;100647.17;1703641;83;21206;-56
2022/09/11 02:44:05;;;;;;;5.35;3.10;;;;;;;11.60;60.65;100636.88;1713672;83;21301;-56
2022/09/11 02:47:40;;;;;;;7.95;3.45;;;;;;;11.57;60.74;100634.50;1711162;82;21258;-55
2022/09/11 02:50:55;;;;;;;6.78;3.25;;;;;;;11.53;60.76;100635.86;1713973;83;21203;-56
2022/09/11 02:54:39;;;;;;;5.12;2.95;;;;;;;11.53;60.88;100632.62;1706651;84;21230;-57
2022/09/11 02:57:50;;;;;;;5.47;2.85;;;;;;;11.52;60.91;100635.54;1703313;84;21266;-57
2022/09/11 03:00:56;;;;;;;8.50;3.27;;;;;;;11.48;61.03;100632.28;1721469;83;21246;-56
2022/09/11 03:04:03;;;;;;;7.08;3.10;;;;;;;11.51;61.09;100633.84;1706405;83;21293;-58
2022/09/11 03:07:10;;;;;;;5.80;3.02;;;;;;;11.53;61.17;100635.36;1708192;84;21207;-56
2022/09/11 03:10:17;;;;;;;5.33;2.75;;;;;;;11.56;61.21;100635.55;1708019;84;21198;-57
2022/09/11 03:13:23;;;;;;;6.25;3.10;;;;;;;11.60;61.25;100640.49;1713889;83;21232;-56
2022/09/11 03:16:32;;;;;;;6.45;2.92;;;;;;;11.62;61.24;100632.09;1697078;84;21162;-57
2022/09/11 03:19:38;;;;;;;8.23;3.22;;;;;;;11.61;61.22;100634.47;1713393;84;21481;-57
2022/09/11 03:22:47;;;;;;;6.50;2.85;;;;;;;11.61;61.25;100628.48;1701997;84;21403;-57
2022/09/11 03:25:54;;;;;;;7.45;2.90;;;;;;;11.62;61.31;100631.55;1705819;83;21215;-56
2022/09/11 03:29:02;;;;;;;7.87;3.27;;;;;;;11.64;61.36;100629.53;1713735;83;21230;-57
2022/09/11 03:32:10;;;;;;;6.47;2.70;;;;;;;11.66;61.43;100630.22;1706150;84;21175;-57
2022/09/11 03:35:17;;;;;;;5.30;2.60;;;;;;;11.67;61.39;100627.80;1713674;84;21246;-57
2022/09/11 03:38:24;;;;;;;6.50;2.90;;;;;;;11.68;61.38;100623.18;1706347;84;21346;-57
2022/09/11 03:41:32;;;;;;;5.33;2.50;;;;;;;11.69;61.43;100629.86;1700227;84;21191;-57
2022/09/11 03:44:38;;;;;;;10.28;2.52;;;;;;;11.72;61.46;100622.64;1702599;82;21189;-57
2022/09/11 03:47:46;;;;;;;5.33;2.75;;;;;;;11.74;61.49;100617.84;1726135;81;21215;-57
2022/09/11 03:50:53;;;;;;;8.98;2.70;;;;;;;11.76;61.50;100621.78;1674087;85;21360;-55
2022/09/11 03:53:59;;;;;;;4.45;2.50;;;;;;;11.78;61.51;100608.75;1674578;84;21263;-55
2022/09/11 03:57:06;;;;;;;7.80;2.65;;;;;;;11.76;61.41;100605.33;1674963;85;21308;-57
2022/09/11 04:00:15;;;;;;;7.08;2.42;;;;;;;11.74;61.43;100612.87;1685859;84;21212;-56
2022/09/11 04:03:22;;;;;;;7.58;3.42;;;;;;;11.73;61.48;100622.14;1701413;83;21390;-55
2022/09/11 04:06:28;;;;;;;5.45;2.30;;;;;;;11.69;61.50;100615.28;1702514;84;21292;-56
2022/09/11 04:09:38;;;;;;;4.40;2.52;;;;;;;11.71;61.58;100619.58;1702523;83;21394;-55
2022/09/11 04:12:43;;;;;;;5.53;2.30;;;;;;;11.71;61.61;100611.34;1702095;83;21280;-59
2022/09/11 04:15:48;;;;;;;5.70;2.60;;;;;;;11.73;61.61;100618.02;1702005;84;21221;-56
2022/09/11 04:18:57;;;;;;;4.75;2.20;;;;;;;11.74;61.62;100615.61;1655806;84;21224;-55
2022/09/11 04:22:04;;;;;;;6.97;2.77;;;;;;;11.73;61.62;100610.63;1702144;84;21204;-56
2022/09/11 04:25:11;;;;;;;6.42;2.40;;;;;;;11.69;61.59;100603.80;1702103;84;21193;-56
2022/09/11 04:28:19;;;;;;;5.67;2.72;;;;;;;11.68;61.64;100599.37;1702558;83;21781;-57
2022/09/11 04:31:30;;;;;;;3.60;2.45;;;;;;;11.69;61.68;100599.70;1680009;84;21236;-57
2022/09/11 04:34:34;;;;;;;8.05;2.60;;;;;;;11.71;61.74;100602.26;1702580;83;21204;-56
2022/09/11 04:37:42;;;;;;;3.33;2.20;;;;;;;11.71;61.66;100598.14;1703125;83;21213;-56
2022/09/11 04:40:48;;;;;;;4.45;2.08;;;;;;;11.67;61.69;100607.77;1702868;84;21189;-57
2022/09/11 04:43:55;;;;;;;6.10;2.10;;;;;;;11.69;61.76;100609.80;1702138;83;21228;-56
2022/09/11 04:47:06;;;;;;;8.58;2.70;;;;;;;11.70;61.83;100600.56;1674094;85;21256;-56
2022/09/11 04:50:11;;;;;;;5.20;2.35;;;;;;;11.75;61.86;100603.09;1678243;84;21278;-54
2022/09/11 04:53:19;;;;;;;6.90;2.58;;;;;;;11.74;61.86;100593.67;1713024;83;21243;-55
2022/09/11 04:56:28;;;;;;;4.58;2.30;;;;;;;11.77;61.91;100591.94;1733910;83;21203;-56
2022/09/11 04:59:34;;;;;;;3.35;1.90;;;;;;;11.80;61.94;100595.19;1712603;83;21223;-57
2022/09/11 05:02:42;;;;;;;3.20;2.35;;;;;;;11.83;61.95;100587.97;1734159;81;21246;-58
2022/09/11 05:05:47;;;;;;;7.95;2.10;;;;;;;11.85;61.97;100585.05;1666815;86;21220;-57
2022/09/11 05:08:53;;;;;;;4.20;1.90;;;;;;;11.89;61.99;100592.73;1667011;84;21312;-56
2022/09/11 05:12:02;;;;;;;3.40;2.30;;;;;;;11.91;62.00;100587.93;1667204;86;21269;-55
2022/09/11 05:15:09;;;;;;;3.87;2.20;;;;;;;11.92;61.95;100580.56;1667132;86;21304;-57
2022/09/11 05:18:16;;;;;;;6.15;2.10;;;;;;;11.94;61.97;100585.33;1667479;84;21256;-57
2022/09/11 05:21:24;;;;;;;4.42;2.12;;;;;;;11.96;62.02;100585.51;1652103;85;21185;-58
2022/09/11 05:24:32;;;;;;;5.62;2.20;;;;;;;11.99;62.06;100583.77;1667310;84;21233;-56
2022/09/11 05:27:40;;;;;;;4.35;2.05;;;;;;;12.03;62.08;100586.48;1666874;84;21229;-56
2022/09/11 05:30:47;;;;;;;4.30;2.40;;;;;;;12.08;62.10;100589.55;1667147;86;21245;-56
2022/09/11 05:33:59;;;;;;;5.55;2.10;;;;;;;12.14;62.09;100595.34;1666529;84;21796;-58
2022/09/11 05:37:04;;;;;;;5.90;2.15;;;;;;;12.16;62.06;100590.03;1666768;86;21335;-58
2022/09/11 05:40:12;;;;;;;4.33;2.08;;;;;;;12.17;62.01;100594.48;1666622;86;21201;-57
2022/09/11 05:43:18;;;;;;;4.67;1.98;;;;;;;12.14;61.87;100582.49;1651949;86;21742;-57
2022/09/11 05:46:25;;;;;;;5.12;2.10;;;;;;;12.10;61.84;100589.36;1666219;86;21280;-56
2022/09/11 05:49:31;;;;;;;3.45;2.10;;;;;;;12.07;61.83;100589.72;1667064;83;21236;-56
2022/09/11 05:52:40;;;;;;;4.85;2.30;;;;;;;12.04;61.83;100576.37;1618116;88;21267;-56
2022/09/11 05:55:46;;;;;;;5.08;2.00;;;;;;;12.04;61.89;100581.86;1633757;87;21192;-56
2022/09/11 05:58:52;;;;;;;5.83;2.12;;;;;;;12.05;61.92;100572.58;1684095;85;21298;-57
2022/09/11 06:02:00;;;;;;;3.47;2.22;;;;;;;12.08;62.01;100574.12;1652536;87;21215;-56
2022/09/11 06:05:08;;;;;;;8.03;2.37;;;;;;;12.11;62.08;100574.62;1635628;87;21220;-56
2022/09/11 06:08:16;;;;;;;7.00;2.37;;;;;;;12.14;62.10;100559.17;1634057;87;21352;-57
2022/09/11 06:11:24;;;;;;;4.78;1.70;;;;;;;12.14;62.15;100548.19;1633614;87;21200;-57
2022/09/11 06:14:33;;;;;;;10.40;2.30;;;;;;;12.18;62.17;100554.17;1684193;85;21586;-57
2022/09/11 06:17:39;;;;;;;5.70;2.12;;;;;;;12.21;62.15;100558.75;1648638;87;21279;-57
2022/09/11 06:20:47;;;;;;;6.80;2.37;;;;;;;12.22;62.14;100544.52;1684838;85;21199;-57
2022/09/11 06:23:57;;;;;;;3.72;2.00;;;;;;;12.21;62.12;100551.06;1650613;86;21275;-57
2022/09/11 06:27:05;;;;;;;4.15;1.87;;;;;;;12.23;62.19;100558.06;1635134;87;21284;-55
2022/09/11 06:30:13;;;;;;;4.97;2.00;;;;;;;12.28;62.23;100572.09;1684456;85;21252;-57
2022/09/11 06:33:22;;;;;;;5.25;1.80;;;;;;;12.34;62.24;100578.23;1634136;87;21255;-58
2022/09/11 06:36:31;;;;;;;4.10;1.87;;;;;;;12.38;62.17;100575.98;1634467;87;21224;-57
2022/09/11 06:39:37;;;;;;;2.80;1.72;;;;;;;12.42;62.17;100576.80;1684872;84;21237;-56
2022/09/11 06:42:47;;;;;;;5.53;2.08;;;;;;;12.50;62.20;100577.25;1634910;87;21267;-57
2022/09/11 06:45:53;;;;;;;5.67;2.42;;;;;;;12.54;62.14;100576.69;1636705;87;21208;-56
2022/09/11 06:49:01;;;;;;;6.20;2.08;;;;;;;12.59;62.17;100578.92;1634201;88;21248;-58
2022/09/11 06:52:27;;;;;;;4.75;1.90;;;;;;;12.64;62.10;100580.56;1658197;82;21777;-58
2022/09/11 06:55:34;;;;;;;5.17;1.70;;;;;;;12.67;62.10;100579.69;1729805;82;21401;-57
2022/09/11 06:58:41;;;;;;;5.53;1.72;;;;;;;12.71;62.13;100581.03;1736330;81;21373;-57
2022/09/11 07:01:49;;;;;;;4.70;1.75;;;;;;;12.73;62.10;100579.48;1664732;86;21229;-57
2022/09/11 07:04:54;;;;;;;8.45;2.00;;;;;;;12.76;62.11;100587.34;1729228;82;21191;-57
2022/09/11 07:08:04;;;;;;;4.05;1.90;;;;;;;12.76;62.07;100595.08;1729026;81;21219;-56
2022/09/11 07:11:11;;;;;;;3.52;1.80;;;;;;;12.75;61.98;100596.09;1728313;83;21208;-55
2022/09/11 07:14:20;;;;;;;4.17;2.17;;;;;;;12.70;61.88;100602.66;1674558;84;21264;-55
2022/09/11 07:17:27;;;;;;;4.25;2.08;;;;;;;12.64;61.87;100600.66;1664549;85;21232;-56
2022/09/11 07:20:35;;;;;;;4.00;2.10;;;;;;;12.54;61.84;100602.78;1729501;83;21388;-57
2022/09/11 07:23:42;;;;;;;5.55;1.85;;;;;;;12.49;61.84;100603.02;1674710;84;21232;-56
2022/09/11 07:26:50;;;;;;;3.60;1.80;;;;;;;12.42;61.89;100609.75;1674079;85;21224;-57
2022/09/11 07:29:58;;;;;;;6.08;2.20;;;;;;;12.37;61.91;100619.58;1664789;86;21201;-58
2022/09/11 07:33:06;;;;;;;5.33;2.12;;;;;;;12.29;61.88;100617.72;1728762;81;21215;-58
2022/09/11 07:36:15;;;;;;;6.42;2.30;;;;;;;12.22;61.98;100623.61;1649590;85;21185;-57
2022/09/11 07:39:22;;;;;;;5.37;2.35;;;;;;;12.16;62.01;100624.34;1664527;85;21264;-56
2022/09/11 07:42:32;;;;;;;5.35;2.20;;;;;;;12.08;62.02;100624.38;1729073;81;21188;-55
2022/09/11 07:45:40;;;;;;;5.85;2.58;;;;;;;12.04;62.18;100623.02;1664399;86;21196;-56
2022/09/11 07:48:47;;;;;;;5.50;2.37;;;;;;;11.99;62.17;100621.32;1729246;81;21341;-55
2022/09/11 07:51:54;;;;;;;4.45;2.02;;;;;;;11.94;62.20;100619.63;1674044;85;21224;-57
2022/09/11 07:55:06;;;;;;;4.92;2.05;;;;;;;11.88;62.23;100617.60;1672527;86;21193;-56
2022/09/11 07:58:12;;;;;;;8.98;2.72;;;;;;;11.81;62.21;100607.02;1662180;85;21375;-56
2022/09/11 08:01:25;;;;;;;5.58;2.35;;;;;;;11.73;62.19;100596.92;1714421;83;21277;-56
2022/09/11 08:04:31;;;;;;;5.40;2.10;;;;;;;11.67;62.32;100589.41;1661789;85;21744;-56
2022/09/11 08:07:39;;;;;;;5.17;2.00;;;;;;;11.63;62.37;100586.70;1714170;82;21317;-56
2022/09/11 08:10:45;;;;;;;3.27;2.12;;;;;;;11.55;62.44;100587.20;1648408;86;21261;-56
2022/09/11 08:14:00;;;;;;;6.00;2.05;;;;;;;11.52;62.60;100584.31;1714587;82;21381;-56
2022/09/11 08:17:06;;;;;;;6.60;2.40;;;;;;;11.47;62.62;100584.48;1714597;83;21258;-56
2022/09/11 08:20:14;;;;;;;4.47;2.27;;;;;;;11.42;62.74;100583.66;1714352;83;21184;-56
2022/09/11 08:23:22;;;;;;;6.75;2.60;;;;;;;11.41;62.76;100589.31;1719855;81;21280;-56
2022/09/11 08:26:31;;;;;;;5.95;2.20;;;;;;;11.38;62.89;100585.55;1668065;85;21273;-56
2022/09/11 08:29:36;;;;;;;5.62;2.37;;;;;;;11.38;63.02;100586.42;1727367;81;21209;-56
2022/09/11 08:32:43;;;;;;;6.00;2.62;;;;;;;11.41;63.10;100586.57;1668477;84;21194;-57
2022/09/11 08:35:52;;;;;;;5.55;2.42;;;;;;;11.48;63.25;100587.59;1727585;82;21193;-56
2022/09/11 08:39:02;;;;;;;5.85;2.47;;;;;;;11.54;63.32;100589.62;1727350;81;21241;-56
2022/09/11 08:42:17;;;;;;;5.55;2.80;;;;;;;11.57;63.33;100574.18;1668116;85;21763;-55
2022/09/11 08:45:26;;;;;;;5.25;2.47;;;;;;;11.59;63.24;100584.47;1728200;82;21276;-56
2022/09/11 08:48:38;;;;;;;8.28;3.15;;;;;;;11.56;63.27;100578.80;1669760;84;21286;-55
2022/09/11 08:51:44;;;;;;;6.45;2.37;;;;;;;11.56;63.33;100567.00;1699769;84;21209;-56
2022/09/11 08:54:53;;;;;;;4.58;2.52;;;;;;;11.61;63.52;100561.30;1695625;81;21349;-56
2022/09/11 08:58:15;;;;;;;4.37;2.70;;;;;;;11.68;63.61;100565.09;1696946;83;21280;-55
2022/09/11 09:01:52;;;;;;;3.55;2.15;;;;;;;11.73;63.55;100554.95;1668743;85;21263;-56
2022/09/11 09:05:35;;;;;;;7.45;2.80;;;;;;;11.76;63.59;100554.59;1759556;81;21543;-56
2022/09/11 09:08:57;;;;;;;6.45;2.70;;;;;;;11.86;63.75;100545.63;1763936;80;21214;-57
2022/09/11 09:12:17;;;;;;;4.58;2.77;;;;;;;11.91;63.76;100543.17;1764291;81;21685;-56
2022/09/11 09:15:40;;;;;;;4.17;2.22;;;;;;;11.95;63.78;100523.45;1764083;81;21701;-56
2022/09/11 09:18:54;;;;;;;7.08;2.58;;;;;;;12.02;63.83;100528.53;1759133;80;21973;-57
2022/09/11 09:22:29;;;;;;;2.80;2.30;;;;;;;12.07;63.85;100519.75;1759321;81;21270;-56
2022/09/11 09:25:38;;;;;;;8.90;3.77;;;;;;;12.10;63.82;100524.87;1759126;81;21434;-56
2022/09/11 09:28:57;;;;;;;6.85;2.80;;;;;;;12.13;63.90;100515.44;1745698;81;21192;-57
2022/09/11 09:32:10;;;;;;;4.87;2.90;;;;;;;12.15;63.85;100518.33;1762844;81;21231;-55
2022/09/11 09:35:49;;;;;;;6.25;3.52;;;;;;;12.16;63.88;100510.45;1764222;81;21214;-56
2022/09/11 09:38:57;;;;;;;6.40;3.02;;;;;;;12.19;63.95;100503.22;1764033;80;21330;-56
2022/09/11 09:42:29;;;;;;;5.53;3.22;;;;;;;12.25;64.02;100498.36;1758717;81;21176;-56
2022/09/11 09:46:22;;;;;;;6.62;3.35;;;;;;;12.28;64.04;100484.77;1761007;81;21553;-56
2022/09/11 09:49:34;;;;;;;5.85;3.52;;;;;;;12.36;64.20;100488.82;1733127;81;21234;-56
2022/09/11 09:52:40;;;;;;;11.60;3.30;;;;;;;12.41;64.14;100480.38;1732874;81;22023;-57
2022/09/11 09:55:46;;;;;;;11.15;3.92;;;;;;;12.41;64.14;100473.52;1724946;82;21219;-57
2022/09/11 09:59:06;;;;;;;7.20;3.52;;;;;;;12.42;64.12;100468.86;1673188;84;21240;-56
2022/09/11 10:02:12;;;;;;;12.00;3.90;;;;;;;12.46;64.24;100468.84;1674247;85;21280;-56
2022/09/11 10:05:36;;;;;;;5.10;3.33;;;;;;;12.50;64.20;100456.43;1672985;85;21197;-57
2022/09/11 10:08:45;;;;;;;8.25;3.95;;;;;;;12.56;64.21;100457.08;1674051;84;21201;-56
2022/09/11 10:11:50;;;;;;;6.30;3.75;;;;;;;12.59;64.23;100465.77;1689583;84;21232;-57
2022/09/11 10:15:06;;;;;;;6.75;3.58;;;;;;;12.63;64.25;100458.88;1700215;84;21205;-57
2022/09/11 10:18:46;;;;;;;8.10;3.83;;;;;;;12.66;64.24;100462.62;1700144;84;21285;-57
2022/09/11 10:21:50;;;;;;;6.53;3.47;;;;;;;12.63;64.17;100458.02;1700110;84;21762;-55
2022/09/11 10:25:18;;;;;;;11.08;4.25;;;;;;;12.65;64.30;100456.81;1700433;84;21205;-56
2022/09/11 10:28:36;;;;;;;7.85;4.72;;;;;;;12.62;64.22;100460.45;1682601;84;21216;-57
2022/09/11 10:31:48;;;;;;;5.80;3.65;;;;;;;12.63;64.33;100454.77;1700761;83;21750;-58
2022/09/11 10:34:55;;;;;;;8.15;4.78;;;;;;;12.70;64.44;100457.62;1700622;84;21264;-57
2022/09/11 10:38:19;;;;;;;11.43;5.10;;;;;;;12.77;64.44;100475.04;1700776;84;21228;-57
2022/09/11 10:41:35;;;;;;;11.12;5.65;;;;;;;12.83;64.46;100461.92;1701020;84;21351;-57
2022/09/11 10:44:41;;;;;;;14.33;7.10;;;;;;;12.89;64.40;100464.77;1701123;84;21244;-57
2022/09/11 10:47:51;;;;;;;12.15;6.40;;;;;;;12.90;64.43;100465.13;1701033;84;21236;-58
2022/09/11 10:50:58;;;;;;;10.13;4.90;;;;;;;12.93;64.48;100453.75;1700827;84;21273;-57
2022/09/11 10:54:45;;;;;;;7.10;4.70;;;;;;;12.99;64.56;100455.73;1681202;84;21236;-57
2022/09/11 10:57:59;;;;;;;7.97;4.50;;;;;;;13.05;64.68;100445.38;1672287;86;21378;-57
2022/09/11 11:01:05;;;;;;;10.88;4.30;;;;;;;13.11;64.66;100446.53;1672557;85;21219;-55
2022/09/11 11:04:10;;;;;;;7.70;4.20;;;;;;;13.12;64.65;100447.72;1671603;86;21294;-57
2022/09/11 11:08:00;;;;;;;7.80;4.00;;;;;;;13.14;64.70;100447.52;1666559;85;21798;-56
2022/09/11 11:11:31;;;;;;;7.25;4.00;;;;;;;13.13;64.66;100438.92;1652281;86;21572;-56
2022/09/11 11:15:18;;;;;;;7.05;4.17;;;;;;;13.18;64.70;100443.33;1652854;85;21641;-56
2022/09/11 11:18:43;;;;;;;6.00;3.58;;;;;;;13.24;64.76;100442.05;1669459;84;21288;-56
2022/09/11 11:22:07;;;;;;;6.45;3.90;;;;;;;13.32;64.83;100447.44;1669973;84;21252;-56
2022/09/11 11:25:28;;;;;;;7.22;4.03;;;;;;;13.38;64.89;100454.92;1670275;86;21256;-56
2022/09/11 11:29:04;;;;;;;6.47;4.20;;;;;;;13.43;64.92;100457.95;1670059;84;21225;-55
2022/09/11 11:32:37;;;;;;;7.28;4.25;;;;;;;13.48;64.92;100462.87;1652795;87;21234;-56
2022/09/11 11:36:03;;;;;;;6.58;4.60;;;;;;;13.51;65.00;100461.10;1646538;86;21258;-56
2022/09/11 11:39:31;;;;;;;7.92;4.08;;;;;;;13.53;64.98;100455.77;1646333;86;21270;-54
2022/09/11 11:42:48;;;;;;;4.65;3.58;;;;;;;13.54;65.03;100451.95;1639847;86;21806;-55
2022/09/11 11:46:03;;;;;;;6.47;3.55;;;;;;;13.52;64.96;100454.58;1657358;86;21868;-55
2022/09/11 11:49:21;;;;;;;7.65;4.55;;;;;;;13.45;65.00;100451.74;1655888;84;21427;-55
2022/09/11 11:52:46;;;;;;;9.95;4.10;;;;;;;13.41;64.97;100439.95;1672449;85;21239;-55
2022/09/11 11:56:40;;;;;;;7.78;5.03;;;;;;;13.38;64.99;100440.34;1664530;86;21244;-56
2022/09/11 11:59:55;;;;;;;7.05;4.15;;;;;;;13.37;65.14;100446.86;1691194;85;21234;-56
2022/09/11 12:03:15;;;;;;;8.98;3.83;;;;;;;13.37;65.23;100444.11;1679314;84;21548;-56
2022/09/11 12:06:25;;;;;;;8.93;4.10;;;;;;;13.36;65.33;100441.91;1701390;84;21221;-56
2022/09/11 12:09:32;;;;;;;6.25;4.30;;;;;;;13.33;65.26;100449.14;1700931;84;21221;-56
2022/09/11 12:12:44;;;;;;;7.70;4.45;;;;;;;13.30;65.30;100445.40;1689859;83;21209;-55
2022/09/11 12:16:16;;;;;;;4.83;3.50;;;;;;;13.30;65.38;100437.70;1759310;81;21203;-55
2022/09/11 12:19:26;;;;;;;7.20;3.75;;;;;;;13.31;65.42;100437.50;1691576;83;21245;-55
2022/09/11 12:22:47;;;;;;;10.15;5.87;;;;;;;13.33;65.62;100435.39;1758572;80;21200;-56
2022/09/11 12:25:57;;;;;;;6.80;5.28;;;;;;;13.29;65.54;100424.46;1691805;84;21245;-56
2022/09/11 12:29:25;;;;;;;7.62;4.17;;;;;;;13.26;65.69;100422.61;1759162;80;21231;-55
2022/09/11 12:32:33;;;;;;;7.53;4.58;;;;;;;13.29;65.80;100428.59;1691926;83;21213;-56
2022/09/11 12:35:57;;;;;;;6.37;4.17;;;;;;;13.34;65.98;100423.37;1758824;81;21184;-57
2022/09/11 12:39:12;;;;;;;6.42;3.90;;;;;;;13.40;66.05;100416.23;1691712;83;21277;-57
2022/09/11 12:42:33;;;;;;;8.48;4.03;;;;;;;13.45;66.10;100417.37;1671193;84;21204;-57
2022/09/11 12:45:47;;;;;;;7.25;3.92;;;;;;;13.49;66.02;100419.22;1699470;84;21210;-58
2022/09/11 12:49:07;;;;;;;7.37;4.30;;;;;;;13.50;66.01;100420.91;1645627;86;21374;-58
2022/09/11 12:52:25;;;;;;;7.03;4.50;;;;;;;13.49;65.96;100413.71;1611421;88;21227;-58
2022/09/11 12:55:43;;;;;;;8.00;4.28;;;;;;;13.48;66.03;100412.84;1645213;86;21217;-58
2022/09/11 12:58:51;;;;;;;5.78;4.15;;;;;;;13.51;66.18;100411.59;1680741;82;21261;-56
2022/09/11 13:01:58;;;;;;;6.08;4.08;;;;;;;13.53;66.27;100398.00;1759796;81;21341;-56
2022/09/11 13:05:04;;;;;;;6.12;4.08;;;;;;;13.56;66.24;100403.63;1702824;84;21212;-57
2022/09/11 13:08:27;;;;;;;11.30;4.25;;;;;;;13.57;66.28;100405.34;1692117;83;21213;-57
2022/09/11 13:11:56;;;;;;;7.80;4.33;;;;;;;13.61;66.32;100401.66;1758226;81;21469;-56
2022/09/11 13:15:05;;;;;;;9.60;3.92;;;;;;;13.59;66.31;100402.40;1757123;81;21200;-57
2022/09/11 13:18:39;;;;;;;8.55;4.10;;;;;;;13.59;66.39;100407.90;1757038;81;21255;-57
2022/09/11 13:21:48;;;;;;;7.42;3.80;;;;;;;13.62;66.41;100408.88;1757149;81;21181;-58
2022/09/11 13:24:55;;;;;;;7.17;3.60;;;;;;;13.61;66.45;100408.02;1757105;81;21266;-57
2022/09/11 13:28:06;;;;;;;7.83;3.90;;;;;;;13.63;66.48;100414.70;1756799;81;21255;-57
2022/09/11 13:31:28;;;;;;;8.58;3.85;;;;;;;13.66;66.56;100416.55;1756740;81;21208;-58
2022/09/11 13:34:36;;;;;;;9.10;4.58;;;;;;;13.69;66.60;100409.28;1750471;81;21271;-57
2022/09/11 13:37:46;;;;;;;10.65;4.50;;;;;;;13.70;66.62;100399.13;1757630;81;21223;-57
2022/09/11 13:40:58;;;;;;;9.73;4.00;;;;;;;13.69;66.65;100392.77;1757795;81;21906;-56
2022/09/11 13:44:07;;;;;;;12.05;4.35;;;;;;;13.70;66.72;100387.59;1758824;81;21334;-57
2022/09/11 13:47:29;;;;;;;5.87;3.87;;;;;;;13.72;66.79;100383.26;1758531;81;21175;-57
2022/09/11 13:50:37;;;;;;;9.30;4.47;;;;;;;13.72;66.75;100384.63;1758767;81;21325;-57
2022/09/11 13:53:43;;;;;;;8.58;4.47;;;;;;;13.69;66.78;100376.27;1679361;84;21341;-56
2022/09/11 13:57:06;;;;;;;9.88;4.35;;;;;;;13.68;66.82;100385.58;1702248;84;21193;-56
2022/09/11 14:00:14;;;;;;;7.37;4.33;;;;;;;13.68;66.84;100394.34;1693874;82;21229;-57
2022/09/11 14:03:33;;;;;;;9.35;4.33;;;;;;;13.66;66.89;100382.67;1680109;85;21547;-56
2022/09/11 14:06:42;;;;;;;8.03;4.97;;;;;;;13.63;66.90;100372.06;1759923;81;21172;-57
2022/09/11 14:09:48;;;;;;;9.78;4.47;;;;;;;13.60;66.93;100368.34;1746106;81;21788;-58
2022/09/11 14:13:11;;;;;;;7.05;4.10;;;;;;;13.60;67.08;100365.58;1736663;81;21361;-58
2022/09/11 14:16:28;;;;;;;10.43;4.25;;;;;;;13.61;67.14;100361.77;1691644;84;21208;-58
2022/09/11 14:19:38;;;;;;;8.48;4.50;;;;;;;13.57;67.17;100348.09;1759060;80;21213;-58
2022/09/11 14:22:44;;;;;;;7.85;4.10;;;;;;;13.50;67.13;100341.15;1701993;83;21224;-57
2022/09/11 14:26:16;;;;;;;9.35;4.62;;;;;;;13.50;67.23;100339.27;1702680;84;21205;-56
2022/09/11 14:29:38;;;;;;;10.65;5.15;;;;;;;13.49;67.25;100339.45;1691259;85;21225;-57
2022/09/11 14:32:46;;;;;;;6.47;4.90;;;;;;;13.45;67.35;100329.88;1669037;84;21252;-56
2022/09/11 14:35:54;;;;;;;6.45;4.50;;;;;;;13.42;67.37;100329.77;1664364;86;21745;-56
2022/09/11 14:39:02;;;;;;;8.98;5.00;;;;;;;13.35;67.30;100323.88;1728873;81;21235;-57
2022/09/11 14:42:09;;;;;;;28.85;17.67;;;;;;;13.31;67.36;100323.91;1674252;85;21379;-57
2022/09/11 14:45:27;;;;;;;11.60;5.20;;;;;;;13.25;67.43;100324.19;1684864;84;21807;-57
2022/09/11 14:48:34;;;;;;;7.95;5.05;;;;;;;13.25;67.56;100314.56;1666724;86;21296;-58
2022/09/11 14:51:44;;;;;;;9.80;5.17;;;;;;;13.25;67.65;100317.83;1663293;86;21225;-57
2022/09/11 14:54:51;;;;;;;9.10;5.90;;;;;;;13.24;67.73;100316.97;1733658;81;21227;-56
2022/09/11 14:57:57;;;;;;;6.78;5.17;;;;;;;13.23;67.81;100311.66;1745927;80;21408;-55